sensor_id;sensor_type;location;lat;lon;timestamp;P1;durP1;ratioP1;P2;durP2;ratioP2
15297;SDS011;7750;48.796;9.026;2022-08-20T00:02:13;2.90;;;1.70;;
15297;SDS011;7750;48.796;9.026;2022-08-20T00:07:15;5.93;;;1.60;;
15297;SDS011;7750;48.796;9.026;2022-08-20T00:12:16;2.80;;;1.90;;
15297;SDS011;7750;48.796;9.026;2022-08-20T00:17:17;3.37;;;1.70;;
15297;SDS011;7750;48.796;9.026;2022-08-20T00:22:18;4.87;;;1.93;;
15297;SDS011;7750;48.796;9.026;2022-08-20T00:27:18;4.77;;;1.40;;
15297;SDS011;7750;48.796;9.026;2022-08-20T00:32:19;9.43;;;1.80;;
15297;SDS011;7750;48.796;9.026;2022-08-20T00:37:20;2.43;;;1.33;;
15297;SDS011;7750;48.796;9.026;2022-08-20T00:42:20;2.43;;;1.50;;
15297;SDS011;7750;48.796;9.026;2022-08-20T00:47:21;2.87;;;1.60;;
15297;SDS011;7750;48.796;9.026;2022-08-20T00:52:22;2.97;;;1.67;;
15297;SDS011;7750;48.796;9.026;2022-08-20T00:57:34;2.90;;;1.53;;
15297;SDS011;7750;48.796;9.026;2022-08-20T01:02:38;2.63;;;1.63;;
15297;SDS011;7750;48.796;9.026;2022-08-20T01:07:41;2.80;;;1.40;;
15297;SDS011;7750;48.796;9.026;2022-08-20T01:12:45;2.13;;;1.30;;
15297;SDS011;7750;48.796;9.026;2022-08-20T01:17:48;2.60;;;1.60;;
15297;SDS011;7750;48.796;9.026;2022-08-20T01:28:20;2.33;;;1.63;;
15297;SDS011;7750;48.796;9.026;2022-08-20T01:33:25;2.93;;;1.50;;
15297;SDS011;7750;48.796;9.026;2022-08-20T01:38:26;2.70;;;1.63;;
15297;SDS011;7750;48.796;9.026;2022-08-20T01:43:28;2.77;;;1.70;;
15297;SDS011;7750;48.796;9.026;2022-08-20T01:48:29;2.43;;;1.53;;
15297;SDS011;7750;48.796;9.026;2022-08-20T01:53:34;2.60;;;1.60;;
15297;SDS011;7750;48.796;9.026;2022-08-20T01:58:38;2.47;;;1.53;;
15297;SDS011;7750;48.796;9.026;2022-08-20T02:03:42;3.63;;;1.53;;
15297;SDS011;7750;48.796;9.026;2022-08-20T02:08:44;2.33;;;1.60;;
15297;SDS011;7750;48.796;9.026;2022-08-20T02:13:45;4.73;;;1.80;;
15297;SDS011;7750;48.796;9.026;2022-08-20T02:18:52;2.67;;;1.83;;
15297;SDS011;7750;48.796;9.026;2022-08-20T02:23:55;3.27;;;1.73;;
15297;SDS011;7750;48.796;9.026;2022-08-20T02:28:55;3.40;;;1.90;;
15297;SDS011;7750;48.796;9.026;2022-08-20T02:33:56;3.47;;;2.00;;
15297;SDS011;7750;48.796;9.026;2022-08-20T02:38:57;2.70;;;1.80;;
15297;SDS011;7750;48.796;9.026;2022-08-20T02:43:57;3.17;;;2.20;;
15297;SDS011;7750;48.796;9.026;2022-08-20T02:48:58;2.90;;;2.00;;
15297;SDS011;7750;48.796;9.026;2022-08-20T02:53:59;3.03;;;2.00;;
15297;SDS011;7750;48.796;9.026;2022-08-20T02:58:59;2.80;;;2.00;;
15297;SDS011;7750;48.796;9.026;2022-08-20T03:04:01;2.60;;;1.90;;
15297;SDS011;7750;48.796;9.026;2022-08-20T03:09:02;4.20;;;2.03;;
15297;SDS011;7750;48.796;9.026;2022-08-20T03:14:05;3.50;;;2.40;;
15297;SDS011;7750;48.796;9.026;2022-08-20T03:19:05;2.60;;;2.00;;
15297;SDS011;7750;48.796;9.026;2022-08-20T03:24:07;3.40;;;2.40;;
15297;SDS011;7750;48.796;9.026;2022-08-20T03:29:08;3.90;;;2.70;;
15297;SDS011;7750;48.796;9.026;2022-08-20T03:34:09;4.57;;;2.20;;
15297;SDS011;7750;48.796;9.026;2022-08-20T03:39:10;4.67;;;2.60;;
15297;SDS011;7750;48.796;9.026;2022-08-20T03:44:12;3.20;;;2.40;;
15297;SDS011;7750;48.796;9.026;2022-08-20T03:49:13;8.20;;;2.60;;
15297;SDS011;7750;48.796;9.026;2022-08-20T03:54:13;4.00;;;2.90;;
15297;SDS011;7750;48.796;9.026;2022-08-20T03:59:14;3.27;;;2.23;;
15297;SDS011;7750;48.796;9.026;2022-08-20T04:04:15;3.80;;;2.90;;
15297;SDS011;7750;48.796;9.026;2022-08-20T04:09:15;3.40;;;2.63;;
15297;SDS011;7750;48.796;9.026;2022-08-20T04:14:16;3.50;;;2.80;;
15297;SDS011;7750;48.796;9.026;2022-08-20T04:19:17;3.97;;;3.13;;
15297;SDS011;7750;48.796;9.026;2022-08-20T04:24:17;3.80;;;3.20;;
15297;SDS011;7750;48.796;9.026;2022-08-20T04:29:18;5.20;;;3.60;;
15297;SDS011;7750;48.796;9.026;2022-08-20T04:34:18;4.20;;;3.30;;
15297;SDS011;7750;48.796;9.026;2022-08-20T04:39:19;4.87;;;2.80;;
15297;SDS011;7750;48.796;9.026;2022-08-20T04:44:20;5.10;;;3.27;;
15297;SDS011;7750;48.796;9.026;2022-08-20T04:49:21;4.60;;;3.50;;
15297;SDS011;7750;48.796;9.026;2022-08-20T04:54:23;4.70;;;3.40;;
15297;SDS011;7750;48.796;9.026;2022-08-20T04:59:24;4.00;;;2.90;;
15297;SDS011;7750;48.796;9.026;2022-08-20T05:04:25;4.30;;;3.10;;
15297;SDS011;7750;48.796;9.026;2022-08-20T05:09:26;4.97;;;3.20;;
15297;SDS011;7750;48.796;9.026;2022-08-20T05:14:27;5.10;;;3.40;;
15297;SDS011;7750;48.796;9.026;2022-08-20T05:19:28;5.20;;;3.53;;
15297;SDS011;7750;48.796;9.026;2022-08-20T05:24:29;3.73;;;2.97;;
15297;SDS011;7750;48.796;9.026;2022-08-20T05:29:29;6.27;;;3.50;;
15297;SDS011;7750;48.796;9.026;2022-08-20T05:34:30;5.77;;;3.17;;
15297;SDS011;7750;48.796;9.026;2022-08-20T05:39:31;7.27;;;3.30;;
15297;SDS011;7750;48.796;9.026;2022-08-20T05:44:31;6.60;;;3.77;;
15297;SDS011;7750;48.796;9.026;2022-08-20T05:49:32;5.80;;;3.57;;
15297;SDS011;7750;48.796;9.026;2022-08-20T05:54:33;5.30;;;3.50;;
15297;SDS011;7750;48.796;9.026;2022-08-20T05:59:33;4.40;;;3.20;;
15297;SDS011;7750;48.796;9.026;2022-08-20T06:04:35;4.50;;;3.27;;
15297;SDS011;7750;48.796;9.026;2022-08-20T06:09:36;4.60;;;3.60;;
15297;SDS011;7750;48.796;9.026;2022-08-20T06:14:36;4.50;;;3.80;;
15297;SDS011;7750;48.796;9.026;2022-08-20T06:19:37;4.60;;;3.80;;
15297;SDS011;7750;48.796;9.026;2022-08-20T06:24:38;4.67;;;3.50;;
15297;SDS011;7750;48.796;9.026;2022-08-20T06:29:39;4.70;;;3.60;;
15297;SDS011;7750;48.796;9.026;2022-08-20T06:34:40;5.90;;;3.63;;
15297;SDS011;7750;48.796;9.026;2022-08-20T06:39:41;5.63;;;3.67;;
15297;SDS011;7750;48.796;9.026;2022-08-20T06:44:42;4.33;;;3.00;;
15297;SDS011;7750;48.796;9.026;2022-08-20T06:49:44;4.00;;;3.10;;
15297;SDS011;7750;48.796;9.026;2022-08-20T06:54:46;9.10;;;3.03;;
15297;SDS011;7750;48.796;9.026;2022-08-20T06:59:47;4.03;;;3.00;;
15297;SDS011;7750;48.796;9.026;2022-08-20T07:04:47;4.57;;;3.60;;
15297;SDS011;7750;48.796;9.026;2022-08-20T07:09:48;3.70;;;3.00;;
15297;SDS011;7750;48.796;9.026;2022-08-20T07:14:49;6.10;;;3.53;;
15297;SDS011;7750;48.796;9.026;2022-08-20T07:19:49;10.07;;;3.53;;
15297;SDS011;7750;48.796;9.026;2022-08-20T07:24:50;4.00;;;2.97;;
15297;SDS011;7750;48.796;9.026;2022-08-20T07:29:51;4.83;;;3.70;;
15297;SDS011;7750;48.796;9.026;2022-08-20T07:35:30;4.57;;;3.20;;
15297;SDS011;7750;48.796;9.026;2022-08-20T07:40:32;3.93;;;2.90;;
15297;SDS011;7750;48.796;9.026;2022-08-20T07:45:34;5.80;;;3.73;;
15297;SDS011;7750;48.796;9.026;2022-08-20T07:50:35;5.10;;;3.70;;
15297;SDS011;7750;48.796;9.026;2022-08-20T07:55:36;4.50;;;3.37;;
15297;SDS011;7750;48.796;9.026;2022-08-20T08:00:38;4.70;;;3.70;;
15297;SDS011;7750;48.796;9.026;2022-08-20T08:05:40;5.90;;;3.80;;
15297;SDS011;7750;48.796;9.026;2022-08-20T08:10:44;7.47;;;3.73;;
15297;SDS011;7750;48.796;9.026;2022-08-20T08:15:47;5.27;;;3.60;;
15297;SDS011;7750;48.796;9.026;2022-08-20T08:20:48;4.07;;;3.00;;
15297;SDS011;7750;48.796;9.026;2022-08-20T08:25:52;6.53;;;3.40;;
15297;SDS011;7750;48.796;9.026;2022-08-20T08:30:53;4.80;;;3.57;;
15297;SDS011;7750;48.796;9.026;2022-08-20T08:35:54;4.60;;;3.40;;
15297;SDS011;7750;48.796;9.026;2022-08-20T08:40:57;5.50;;;3.80;;
15297;SDS011;7750;48.796;9.026;2022-08-20T08:46:08;4.50;;;3.03;;
15297;SDS011;7750;48.796;9.026;2022-08-20T08:51:11;5.10;;;3.77;;
15297;SDS011;7750;48.796;9.026;2022-08-20T08:56:17;5.47;;;3.50;;
15297;SDS011;7750;48.796;9.026;2022-08-20T09:01:19;3.90;;;2.70;;
15297;SDS011;7750;48.796;9.026;2022-08-20T09:06:22;5.13;;;3.20;;
15297;SDS011;7750;48.796;9.026;2022-08-20T09:11:24;4.43;;;2.77;;
15297;SDS011;7750;48.796;9.026;2022-08-20T09:16:26;3.80;;;2.50;;
15297;SDS011;7750;48.796;9.026;2022-08-20T09:21:27;3.53;;;2.60;;
15297;SDS011;7750;48.796;9.026;2022-08-20T09:26:28;3.93;;;2.50;;
15297;SDS011;7750;48.796;9.026;2022-08-20T09:31:29;3.07;;;1.87;;
15297;SDS011;7750;48.796;9.026;2022-08-20T09:36:30;3.73;;;1.90;;
15297;SDS011;7750;48.796;9.026;2022-08-20T09:41:31;3.30;;;1.73;;
15297;SDS011;7750;48.796;9.026;2022-08-20T09:46:31;2.90;;;2.00;;
15297;SDS011;7750;48.796;9.026;2022-08-20T09:51:32;3.33;;;2.47;;
15297;SDS011;7750;48.796;9.026;2022-08-20T09:56:33;3.30;;;2.20;;
15297;SDS011;7750;48.796;9.026;2022-08-20T10:01:35;4.60;;;2.20;;
15297;SDS011;7750;48.796;9.026;2022-08-20T10:06:39;3.00;;;1.70;;
15297;SDS011;7750;48.796;9.026;2022-08-20T10:11:40;3.97;;;1.70;;
15297;SDS011;7750;48.796;9.026;2022-08-20T10:16:43;3.37;;;2.20;;
15297;SDS011;7750;48.796;9.026;2022-08-20T10:21:48;4.10;;;1.90;;
15297;SDS011;7750;48.796;9.026;2022-08-20T10:26:53;2.30;;;1.60;;
15297;SDS011;7750;48.796;9.026;2022-08-20T10:31:55;4.00;;;1.80;;
15297;SDS011;7750;48.796;9.026;2022-08-20T10:36:56;3.20;;;2.13;;
15297;SDS011;7750;48.796;9.026;2022-08-20T10:41:57;4.50;;;3.40;;
15297;SDS011;7750;48.796;9.026;2022-08-20T10:47:11;2.70;;;1.53;;
15297;SDS011;7750;48.796;9.026;2022-08-20T10:52:18;2.50;;;1.40;;
15297;SDS011;7750;48.796;9.026;2022-08-20T10:57:27;2.80;;;1.60;;
15297;SDS011;7750;48.796;9.026;2022-08-20T11:02:29;2.30;;;1.27;;
15297;SDS011;7750;48.796;9.026;2022-08-20T11:07:34;3.13;;;1.50;;
15297;SDS011;7750;48.796;9.026;2022-08-20T11:12:36;3.23;;;1.40;;
15297;SDS011;7750;48.796;9.026;2022-08-20T11:17:38;2.47;;;1.70;;
15297;SDS011;7750;48.796;9.026;2022-08-20T11:22:40;3.50;;;1.70;;
15297;SDS011;7750;48.796;9.026;2022-08-20T11:27:42;2.50;;;1.53;;
15297;SDS011;7750;48.796;9.026;2022-08-20T11:32:45;3.10;;;1.40;;
15297;SDS011;7750;48.796;9.026;2022-08-20T11:37:46;2.47;;;1.33;;
15297;SDS011;7750;48.796;9.026;2022-08-20T11:42:46;2.20;;;1.30;;
15297;SDS011;7750;48.796;9.026;2022-08-20T11:47:47;3.30;;;1.97;;
15297;SDS011;7750;48.796;9.026;2022-08-20T11:52:48;2.50;;;1.60;;
15297;SDS011;7750;48.796;9.026;2022-08-20T11:57:49;3.07;;;1.50;;
15297;SDS011;7750;48.796;9.026;2022-08-20T12:02:50;2.80;;;1.47;;
15297;SDS011;7750;48.796;9.026;2022-08-20T12:07:51;2.37;;;1.33;;
15297;SDS011;7750;48.796;9.026;2022-08-20T12:12:51;1.80;;;1.03;;
15297;SDS011;7750;48.796;9.026;2022-08-20T12:17:52;2.10;;;1.30;;
15297;SDS011;7750;48.796;9.026;2022-08-20T12:22:54;2.30;;;1.40;;
15297;SDS011;7750;48.796;9.026;2022-08-20T12:27:54;2.30;;;1.43;;
15297;SDS011;7750;48.796;9.026;2022-08-20T12:32:55;2.17;;;1.40;;
15297;SDS011;7750;48.796;9.026;2022-08-20T12:37:56;4.40;;;1.73;;
15297;SDS011;7750;48.796;9.026;2022-08-20T12:42:57;3.27;;;1.50;;
15297;SDS011;7750;48.796;9.026;2022-08-20T12:47:59;2.33;;;1.50;;
15297;SDS011;7750;48.796;9.026;2022-08-20T12:53:08;3.17;;;1.67;;
15297;SDS011;7750;48.796;9.026;2022-08-20T12:58:09;2.80;;;1.70;;
15297;SDS011;7750;48.796;9.026;2022-08-20T13:03:10;2.53;;;1.43;;
15297;SDS011;7750;48.796;9.026;2022-08-20T13:08:11;2.10;;;1.40;;
15297;SDS011;7750;48.796;9.026;2022-08-20T13:13:13;2.30;;;1.70;;
15297;SDS011;7750;48.796;9.026;2022-08-20T13:18:18;2.83;;;1.53;;
15297;SDS011;7750;48.796;9.026;2022-08-20T13:23:19;2.13;;;1.30;;
15297;SDS011;7750;48.796;9.026;2022-08-20T13:28:20;4.23;;;1.60;;
15297;SDS011;7750;48.796;9.026;2022-08-20T13:33:20;2.30;;;1.40;;
15297;SDS011;7750;48.796;9.026;2022-08-20T13:38:21;2.37;;;1.47;;
15297;SDS011;7750;48.796;9.026;2022-08-20T13:43:22;2.73;;;1.53;;
15297;SDS011;7750;48.796;9.026;2022-08-20T13:48:23;2.10;;;1.30;;
15297;SDS011;7750;48.796;9.026;2022-08-20T13:53:24;3.10;;;1.50;;
15297;SDS011;7750;48.796;9.026;2022-08-20T13:58:25;2.00;;;1.30;;
15297;SDS011;7750;48.796;9.026;2022-08-20T14:03:25;2.10;;;1.20;;
15297;SDS011;7750;48.796;9.026;2022-08-20T14:08:26;2.63;;;1.40;;
15297;SDS011;7750;48.796;9.026;2022-08-20T14:13:27;2.53;;;1.40;;
15297;SDS011;7750;48.796;9.026;2022-08-20T14:18:27;2.10;;;1.20;;
15297;SDS011;7750;48.796;9.026;2022-08-20T14:23:29;2.40;;;1.60;;
15297;SDS011;7750;48.796;9.026;2022-08-20T14:28:30;2.07;;;1.17;;
15297;SDS011;7750;48.796;9.026;2022-08-20T14:33:31;2.00;;;1.10;;
15297;SDS011;7750;48.796;9.026;2022-08-20T14:38:31;2.00;;;1.13;;
15297;SDS011;7750;48.796;9.026;2022-08-20T14:43:32;2.60;;;1.30;;
15297;SDS011;7750;48.796;9.026;2022-08-20T14:48:32;2.40;;;1.30;;
15297;SDS011;7750;48.796;9.026;2022-08-20T14:53:33;1.90;;;1.10;;
15297;SDS011;7750;48.796;9.026;2022-08-20T14:58:34;2.40;;;1.27;;
15297;SDS011;7750;48.796;9.026;2022-08-20T15:03:34;2.00;;;1.10;;
15297;SDS011;7750;48.796;9.026;2022-08-20T15:08:35;1.80;;;1.00;;
15297;SDS011;7750;48.796;9.026;2022-08-20T15:13:36;2.00;;;1.00;;
15297;SDS011;7750;48.796;9.026;2022-08-20T15:18:36;3.40;;;1.37;;
15297;SDS011;7750;48.796;9.026;2022-08-20T15:23:37;2.00;;;1.20;;
15297;SDS011;7750;48.796;9.026;2022-08-20T15:28:38;2.00;;;1.20;;
15297;SDS011;7750;48.796;9.026;2022-08-20T15:33:39;2.63;;;1.53;;
15297;SDS011;7750;48.796;9.026;2022-08-20T15:38:40;2.60;;;1.57;;
15297;SDS011;7750;48.796;9.026;2022-08-20T15:43:41;2.67;;;1.50;;
15297;SDS011;7750;48.796;9.026;2022-08-20T15:48:44;3.17;;;1.60;;
15297;SDS011;7750;48.796;9.026;2022-08-20T16:04:19;2.87;;;2.00;;
15297;SDS011;7750;48.796;9.026;2022-08-20T16:09:45;5.40;;;2.10;;
15297;SDS011;7750;48.796;9.026;2022-08-20T16:15:01;3.20;;;1.83;;
15297;SDS011;7750;48.796;9.026;2022-08-20T16:20:14;2.97;;;1.60;;
15297;SDS011;7750;48.796;9.026;2022-08-20T16:25:17;3.13;;;2.20;;
15297;SDS011;7750;48.796;9.026;2022-08-20T16:35:26;3.30;;;1.97;;
15297;SDS011;7750;48.796;9.026;2022-08-20T16:40:34;3.97;;;2.43;;
15297;SDS011;7750;48.796;9.026;2022-08-20T16:51:28;3.73;;;1.87;;
15297;SDS011;7750;48.796;9.026;2022-08-20T16:56:47;3.73;;;1.93;;
15297;SDS011;7750;48.796;9.026;2022-08-20T17:01:59;4.00;;;2.20;;
15297;SDS011;7750;48.796;9.026;2022-08-20T17:07:04;3.77;;;1.90;;
15297;SDS011;7750;48.796;9.026;2022-08-20T17:12:18;5.87;;;1.50;;
15297;SDS011;7750;48.796;9.026;2022-08-20T17:22:28;3.00;;;1.70;;
15297;SDS011;7750;48.796;9.026;2022-08-20T17:32:30;3.60;;;2.17;;
15297;SDS011;7750;48.796;9.026;2022-08-20T17:37:33;3.73;;;1.80;;
15297;SDS011;7750;48.796;9.026;2022-08-20T17:48:16;3.20;;;1.90;;
15297;SDS011;7750;48.796;9.026;2022-08-20T17:58:55;3.77;;;1.90;;
15297;SDS011;7750;48.796;9.026;2022-08-20T18:04:26;5.80;;;3.23;;
15297;SDS011;7750;48.796;9.026;2022-08-20T18:15:07;4.20;;;2.17;;
15297;SDS011;7750;48.796;9.026;2022-08-20T18:30:24;4.30;;;2.07;;
15297;SDS011;7750;48.796;9.026;2022-08-20T18:35:34;3.80;;;2.13;;
15297;SDS011;7750;48.796;9.026;2022-08-20T18:40:36;3.13;;;2.10;;
15297;SDS011;7750;48.796;9.026;2022-08-20T18:45:38;4.20;;;2.30;;
15297;SDS011;7750;48.796;9.026;2022-08-20T18:55:43;5.40;;;2.17;;
15297;SDS011;7750;48.796;9.026;2022-08-20T19:00:47;3.90;;;1.80;;
15297;SDS011;7750;48.796;9.026;2022-08-20T19:12:06;3.70;;;1.83;;
15297;SDS011;7750;48.796;9.026;2022-08-20T19:22:42;3.63;;;1.90;;
15297;SDS011;7750;48.796;9.026;2022-08-20T19:27:44;7.60;;;2.20;;
15297;SDS011;7750;48.796;9.026;2022-08-20T19:32:49;4.43;;;2.20;;
15297;SDS011;7750;48.796;9.026;2022-08-20T19:37:51;4.40;;;2.00;;
15297;SDS011;7750;48.796;9.026;2022-08-20T19:42:52;4.60;;;2.10;;
15297;SDS011;7750;48.796;9.026;2022-08-20T19:47:56;3.93;;;2.27;;
15297;SDS011;7750;48.796;9.026;2022-08-20T19:53:20;3.50;;;2.30;;
15297;SDS011;7750;48.796;9.026;2022-08-20T19:58:26;3.70;;;2.13;;
15297;SDS011;7750;48.796;9.026;2022-08-20T20:03:29;4.53;;;2.07;;
15297;SDS011;7750;48.796;9.026;2022-08-20T20:08:42;4.90;;;2.27;;
15297;SDS011;7750;48.796;9.026;2022-08-20T20:14:03;3.87;;;1.97;;
15297;SDS011;7750;48.796;9.026;2022-08-20T20:19:09;3.87;;;2.03;;
15297;SDS011;7750;48.796;9.026;2022-08-20T20:24:25;4.20;;;1.80;;
15297;SDS011;7750;48.796;9.026;2022-08-20T20:29:32;4.53;;;1.90;;
15297;SDS011;7750;48.796;9.026;2022-08-20T20:34:36;3.40;;;2.10;;
15297;SDS011;7750;48.796;9.026;2022-08-20T20:39:42;3.57;;;2.13;;
15297;SDS011;7750;48.796;9.026;2022-08-20T20:44:44;3.57;;;2.00;;
15297;SDS011;7750;48.796;9.026;2022-08-20T20:50:04;4.23;;;2.20;;
15297;SDS011;7750;48.796;9.026;2022-08-20T20:55:11;4.20;;;1.90;;
15297;SDS011;7750;48.796;9.026;2022-08-20T21:00:33;5.03;;;1.90;;
15297;SDS011;7750;48.796;9.026;2022-08-20T21:05:33;3.90;;;2.00;;
15297;SDS011;7750;48.796;9.026;2022-08-20T21:10:35;4.77;;;2.00;;
15297;SDS011;7750;48.796;9.026;2022-08-20T21:15:38;5.00;;;2.40;;
15297;SDS011;7750;48.796;9.026;2022-08-20T21:20:39;3.80;;;1.90;;
15297;SDS011;7750;48.796;9.026;2022-08-20T21:25:39;4.60;;;2.10;;
15297;SDS011;7750;48.796;9.026;2022-08-20T21:30:40;3.87;;;2.03;;
15297;SDS011;7750;48.796;9.026;2022-08-20T21:35:40;7.33;;;2.40;;
15297;SDS011;7750;48.796;9.026;2022-08-20T21:40:41;5.00;;;2.00;;
15297;SDS011;7750;48.796;9.026;2022-08-20T21:45:42;8.53;;;2.57;;
15297;SDS011;7750;48.796;9.026;2022-08-20T21:50:42;5.13;;;2.10;;
15297;SDS011;7750;48.796;9.026;2022-08-20T21:55:43;5.37;;;2.37;;
15297;SDS011;7750;48.796;9.026;2022-08-20T22:05:58;3.83;;;2.13;;
15297;SDS011;7750;48.796;9.026;2022-08-20T22:11:01;4.90;;;2.00;;
15297;SDS011;7750;48.796;9.026;2022-08-20T22:16:04;4.33;;;2.00;;
15297;SDS011;7750;48.796;9.026;2022-08-20T22:21:08;5.03;;;1.90;;
15297;SDS011;7750;48.796;9.026;2022-08-20T22:26:13;3.60;;;1.90;;
15297;SDS011;7750;48.796;9.026;2022-08-20T22:31:16;6.00;;;2.57;;
15297;SDS011;7750;48.796;9.026;2022-08-20T22:36:19;5.60;;;1.83;;
15297;SDS011;7750;48.796;9.026;2022-08-20T22:41:21;5.00;;;2.33;;
15297;SDS011;7750;48.796;9.026;2022-08-20T22:46:22;7.40;;;2.50;;
15297;SDS011;7750;48.796;9.026;2022-08-20T22:51:27;3.90;;;2.07;;
15297;SDS011;7750;48.796;9.026;2022-08-20T22:56:29;4.93;;;2.27;;
15297;SDS011;7750;48.796;9.026;2022-08-20T23:01:29;4.70;;;2.30;;
15297;SDS011;7750;48.796;9.026;2022-08-20T23:06:30;8.40;;;2.23;;
15297;SDS011;7750;48.796;9.026;2022-08-20T23:11:31;5.87;;;2.20;;
15297;SDS011;7750;48.796;9.026;2022-08-20T23:16:32;4.17;;;2.33;;
15297;SDS011;7750;48.796;9.026;2022-08-20T23:21:33;4.80;;;1.90;;
15297;SDS011;7750;48.796;9.026;2022-08-20T23:26:34;4.60;;;2.50;;
15297;SDS011;7750;48.796;9.026;2022-08-20T23:31:34;4.07;;;2.27;;
15297;SDS011;7750;48.796;9.026;2022-08-20T23:36:35;5.83;;;2.37;;
15297;SDS011;7750;48.796;9.026;2022-08-20T23:41:36;5.60;;;2.50;;
15297;SDS011;7750;48.796;9.026;2022-08-20T23:46:37;4.43;;;2.60;;
15297;SDS011;7750;48.796;9.026;2022-08-20T23:51:38;3.80;;;2.30;;
15297;SDS011;7750;48.796;9.026;2022-08-20T23:56:39;6.70;;;2.47;;
